Time;durP1;ratioP1;P1;durP2;ratioP2;P2;SDS_P1;SDS_P2;PMS_P1;PMS_P2;Temp;Humidity;BMP_temperature;BMP_pressure;BME280_temperature;BME280_humidity;BME280_pressure;Samples;Min_cycle;Max_cycle;Signal;HPM_P1;HPM_P2
2023/07/14 00:00:08;;;;;;;;;;;;;;;;;;4983989;28;19921;-65
2023/07/14 00:02:35;;;;;;;;;;;;;;;;;;4983813;28;19922;-65
2023/07/14 00:05:02;;;;;;;;;;;;;;;;;;4983798;28;19929;-65
2023/07/14 00:07:29;;;;;;;;;;;;;;;;;;4983622;28;20328;-65
2023/07/14 00:09:56;;;;;;;;;;;;;;;;;;4983603;28;19922;-66
2023/07/14 00:12:23;;;;;;;;;;;;;;;;;;4981883;28;19930;-65
2023/07/14 00:14:50;;;;;;;;;;;;;;;;;;4984976;28;19976;-65
2023/07/14 00:17:16;;;;;;;;;;;;;;;;;;4983137;28;19953;-65
2023/07/14 00:19:44;;;;;;;;;;;;;;;;;;4982592;28;20397;-65
2023/07/14 00:22:11;;;;;;;;;;;;;;;;;;4983273;28;20302;-65
2023/07/14 00:24:38;;;;;;;;;;;;;;;;;;4983773;28;20016;-65
2023/07/14 00:27:05;;;;;;;;;;;;;;;;;;4986481;28;19976;-65
2023/07/14 00:29:32;;;;;;;;;;;;;;;;;;4984134;28;19930;-65
2023/07/14 00:31:59;;;;;;;;;;;;;;;;;;4982466;28;19992;-66
2023/07/14 00:34:26;;;;;;;;;;;;;;;;;;4985285;28;19968;-66
2023/07/14 00:36:53;;;;;;;;;;;;;;;;;;4983121;28;20107;-66
2023/07/14 00:39:19;;;;;;;;;;;;;;;;;;4979954;28;19921;-65
2023/07/14 00:41:46;;;;;;;;;;;;;;;;;;4983769;28;19926;-65
2023/07/14 00:44:13;;;;;;;;;;;;;;;;;;4988272;28;20387;-66
2023/07/14 00:46:40;;;;;;;;;;;;;;;;;;4988463;28;19962;-65
2023/07/14 00:49:07;;;;;;;;;;;;;;;;;;4981719;28;19929;-66
2023/07/14 00:51:34;;;;;;;;;;;;;;;;;;4981300;28;19922;-66
2023/07/14 00:54:01;;;;;;;;;;;;;;;;;;4983169;28;20478;-66
2023/07/14 00:56:27;;;;;;;;;;;;;;;;;;4982079;28;20334;-66
2023/07/14 00:58:55;;;;;;;;;;;;;;;;;;4984581;28;19968;-66
2023/07/14 01:01:22;;;;;;;;;;;;;;;;;;4983038;28;19921;-66
2023/07/14 01:03:49;;;;;;;;;;;;;;;;;;4983137;28;20002;-63
2023/07/14 01:06:16;;;;;;;;;;;;;;;;;;4980396;28;19925;-63
2023/07/14 01:08:43;;;;;;;;;;;;;;;;;;4986066;28;19973;-63
2023/07/14 01:11:10;;;;;;;;;;;;;;;;;;4984442;28;19969;-63
2023/07/14 01:13:37;;;;;;;;;;;;;;;;;;4989390;28;19979;-63
2023/07/14 01:16:04;;;;;;;;;;;;;;;;;;4990459;28;19949;-63
2023/07/14 01:18:31;;;;;;;;;;;;;;;;;;4987798;28;20383;-63
2023/07/14 01:20:58;;;;;;;;;;;;;;;;;;4985377;28;19926;-63
2023/07/14 01:23:25;;;;;;;;;;;;;;;;;;4986881;28;19922;-65
2023/07/14 01:25:52;;;;;;;;;;;;;;;;;;4982123;28;19985;-66
2023/07/14 01:28:19;;;;;;;;;;;;;;;;;;4986623;28;20398;-64
2023/07/14 01:30:46;;;;;;;;;;;;;;;;;;4979845;28;20032;-64
2023/07/14 01:33:13;;;;;;;;;;;;;;;;;;4985822;28;19981;-64
2023/07/14 01:35:40;;;;;;;;;;;;;;;;;;4990038;28;19921;-64
2023/07/14 01:38:09;;;;;;;;;;;;;;;;;;4990231;28;19922;-64
2023/07/14 01:40:36;;;;;;;;;;;;;;;;;;4985016;28;19977;-63
2023/07/14 01:43:03;;;;;;;;;;;;;;;;;;4991226;28;19975;-63
2023/07/14 01:45:30;;;;;;;;;;;;;;;;;;4997184;28;19950;-63
2023/07/14 01:47:57;;;;;;;;;;;;;;;;;;4996270;28;19965;-63
2023/07/14 01:50:24;;;;;;;;;;;;;;;;;;4985426;28;20335;-64
2023/07/14 01:52:51;;;;;;;;;;;;;;;;;;4986505;28;19921;-63
2023/07/14 01:55:18;;;;;;;;;;;;;;;;;;4984522;28;20375;-64
2023/07/14 01:57:45;;;;;;;;;;;;;;;;;;4983961;28;20378;-64
2023/07/14 02:00:12;;;;;;;;;;;;;;;;;;4975333;28;20339;-64
2023/07/14 02:02:39;;;;;;;;;;;;;;;;;;4975395;28;19926;-64
2023/07/14 02:05:06;;;;;;;;;;;;;;;;;;4981082;28;19928;-64
2023/07/14 02:07:33;;;;;;;;;;;;;;;;;;4984809;28;19930;-64
2023/07/14 02:10:00;;;;;;;;;;;;;;;;;;4983496;28;20339;-64
2023/07/14 02:12:27;;;;;;;;;;;;;;;;;;4983836;28;19984;-64
2023/07/14 02:14:53;;;;;;;;;;;;;;;;;;4987783;28;19937;-63
2023/07/14 02:17:20;;;;;;;;;;;;;;;;;;4986610;28;19922;-63
2023/07/14 02:19:47;;;;;;;;;;;;;;;;;;4984785;28;20437;-63
2023/07/14 02:22:14;;;;;;;;;;;;;;;;;;4985463;28;19945;-63
2023/07/14 02:24:41;;;;;;;;;;;;;;;;;;4975021;28;19922;-63
2023/07/14 02:27:08;;;;;;;;;;;;;;;;;;4980683;28;19925;-63
2023/07/14 02:29:35;;;;;;;;;;;;;;;;;;4985456;28;19968;-64
2023/07/14 02:32:02;;;;;;;;;;;;;;;;;;4981487;28;20441;-63
2023/07/14 02:34:29;;;;;;;;;;;;;;;;;;4985789;28;19929;-63
2023/07/14 02:36:56;;;;;;;;;;;;;;;;;;4985316;28;19922;-63
2023/07/14 02:39:22;;;;;;;;;;;;;;;;;;4984869;28;19921;-64
2023/07/14 02:41:49;;;;;;;;;;;;;;;;;;4982927;28;19922;-63
2023/07/14 02:44:16;;;;;;;;;;;;;;;;;;4984775;28;19976;-63
2023/07/14 02:46:43;;;;;;;;;;;;;;;;;;4990983;28;19921;-63
2023/07/14 02:49:10;;;;;;;;;;;;;;;;;;4983374;28;19977;-64
2023/07/14 02:51:37;;;;;;;;;;;;;;;;;;4983594;28;19968;-63
2023/07/14 02:54:04;;;;;;;;;;;;;;;;;;4985341;28;20036;-63
2023/07/14 02:56:31;;;;;;;;;;;;;;;;;;4983070;28;19922;-64
2023/07/14 02:58:58;;;;;;;;;;;;;;;;;;4982529;28;19928;-64
2023/07/14 03:01:25;;;;;;;;;;;;;;;;;;4984662;28;19925;-63
2023/07/14 03:03:53;;;;;;;;;;;;;;;;;;4981739;28;20166;-63
2023/07/14 03:06:19;;;;;;;;;;;;;;;;;;4983591;28;19922;-64
2023/07/14 03:08:46;;;;;;;;;;;;;;;;;;4984241;28;19926;-64
2023/07/14 03:11:13;;;;;;;;;;;;;;;;;;4981963;28;19926;-63
2023/07/14 03:13:40;;;;;;;;;;;;;;;;;;4982645;28;19929;-64
2023/07/14 03:16:07;;;;;;;;;;;;;;;;;;4984315;28;19949;-64
2023/07/14 03:18:34;;;;;;;;;;;;;;;;;;4984843;28;20322;-64
2023/07/14 03:21:01;;;;;;;;;;;;;;;;;;4987554;28;19991;-63
2023/07/14 03:23:28;;;;;;;;;;;;;;;;;;4982797;28;19926;-63
2023/07/14 03:25:55;;;;;;;;;;;;;;;;;;4983910;28;19968;-66
2023/07/14 03:28:21;;;;;;;;;;;;;;;;;;4985051;28;19973;-65
2023/07/14 03:30:48;;;;;;;;;;;;;;;;;;4983723;28;19965;-65
2023/07/14 03:33:15;;;;;;;;;;;;;;;;;;4983207;28;19929;-63
2023/07/14 03:35:42;;;;;;;;;;;;;;;;;;4981777;28;20008;-63
2023/07/14 03:38:09;;;;;;;;;;;;;;;;;;4985963;28;19925;-64
2023/07/14 03:40:36;;;;;;;;;;;;;;;;;;4981902;28;19969;-64
2023/07/14 03:43:03;;;;;;;;;;;;;;;;;;4984535;28;19922;-64
2023/07/14 03:45:31;;;;;;;;;;;;;;;;;;4984514;28;19965;-62
2023/07/14 03:47:57;;;;;;;;;;;;;;;;;;4973111;28;19922;-63
2023/07/14 03:50:25;;;;;;;;;;;;;;;;;;4983517;28;19936;-63
2023/07/14 03:52:52;;;;;;;;;;;;;;;;;;4984354;28;19972;-63
2023/07/14 03:55:19;;;;;;;;;;;;;;;;;;4973256;28;20088;-64
2023/07/14 03:57:45;;;;;;;;;;;;;;;;;;4975014;28;19929;-63
2023/07/14 04:00:14;;;;;;;;;;;;;;;;;;4982547;28;19932;-64
2023/07/14 04:02:41;;;;;;;;;;;;;;;;;;4982858;28;19922;-64
2023/07/14 04:05:08;;;;;;;;;;;;;;;;;;4981356;28;19985;-63
2023/07/14 04:07:35;;;;;;;;;;;;;;;;;;4983273;28;19976;-66
2023/07/14 04:10:02;;;;;;;;;;;;;;;;;;4984728;28;19921;-65
2023/07/14 04:12:28;;;;;;;;;;;;;;;;;;4982475;28;20382;-64
2023/07/14 04:14:55;;;;;;;;;;;;;;;;;;4987883;28;20325;-63
2023/07/14 04:17:23;;;;;;;;;;;;;;;;;;4984522;28;19987;-64
2023/07/14 04:19:50;;;;;;;;;;;;;;;;;;4984811;28;20353;-64
2023/07/14 04:22:16;;;;;;;;;;;;;;;;;;4980621;28;19988;-64
2023/07/14 04:24:43;;;;;;;;;;;;;;;;;;4983505;28;20020;-63
2023/07/14 04:27:12;;;;;;;;;;;;;;;;;;4982276;28;19926;-64
2023/07/14 04:29:39;;;;;;;;;;;;;;;;;;4980590;28;20371;-63
2023/07/14 04:32:06;;;;;;;;;;;;;;;;;;4982301;28;20338;-63
2023/07/14 04:34:33;;;;;;;;;;;;;;;;;;4982838;28;20048;-63
2023/07/14 04:37:00;;;;;;;;;;;;;;;;;;4972773;28;20610;-66
2023/07/14 04:39:27;;;;;;;;;;;;;;;;;;4983680;28;19932;-68
2023/07/14 04:41:54;;;;;;;;;;;;;;;;;;4989130;28;19926;-65
2023/07/14 04:44:21;;;;;;;;;;;;;;;;;;4987024;28;19976;-65
2023/07/14 04:46:48;;;;;;;;;;;;;;;;;;4990161;28;20378;-64
2023/07/14 04:49:16;;;;;;;;;;;;;;;;;;4983731;28;19932;-66
2023/07/14 04:51:42;;;;;;;;;;;;;;;;;;4988988;28;19945;-67
2023/07/14 04:54:09;;;;;;;;;;;;;;;;;;4989047;28;20025;-67
2023/07/14 04:56:37;;;;;;;;;;;;;;;;;;4992547;28;19921;-64
2023/07/14 04:59:04;;;;;;;;;;;;;;;;;;4991431;28;20378;-65
2023/07/14 05:01:31;;;;;;;;;;;;;;;;;;4986801;28;19921;-66
2023/07/14 05:03:58;;;;;;;;;;;;;;;;;;4985549;28;19929;-63
2023/07/14 05:06:24;;;;;;;;;;;;;;;;;;4986652;28;19969;-65
2023/07/14 05:08:51;;;;;;;;;;;;;;;;;;4984975;28;19949;-65
2023/07/14 05:11:18;;;;;;;;;;;;;;;;;;4986339;28;19926;-66
2023/07/14 05:13:45;;;;;;;;;;;;;;;;;;4984518;28;19993;-66
2023/07/14 05:16:12;;;;;;;;;;;;;;;;;;4992079;28;19956;-65
2023/07/14 05:18:39;;;;;;;;;;;;;;;;;;4988992;28;19953;-66
2023/07/14 05:21:06;;;;;;;;;;;;;;;;;;4986534;28;19922;-64
2023/07/14 05:23:33;;;;;;;;;;;;;;;;;;4985286;28;19922;-65
2023/07/14 05:26:00;;;;;;;;;;;;;;;;;;4987224;28;19926;-65
2023/07/14 05:28:27;;;;;;;;;;;;;;;;;;4985737;28;19949;-64
2023/07/14 05:30:53;;;;;;;;;;;;;;;;;;4984030;28;19926;-64
2023/07/14 05:33:20;;;;;;;;;;;;;;;;;;4984274;28;19929;-64
2023/07/14 05:35:48;;;;;;;;;;;;;;;;;;4984156;28;19926;-65
2023/07/14 05:38:15;;;;;;;;;;;;;;;;;;4987972;28;19976;-64
2023/07/14 05:40:42;;;;;;;;;;;;;;;;;;4987959;28;20024;-62
2023/07/14 05:43:08;;;;;;;;;;;;;;;;;;4986789;28;19975;-63
2023/07/14 05:45:35;;;;;;;;;;;;;;;;;;4989716;28;19926;-63
2023/07/14 05:48:02;;;;;;;;;;;;;;;;;;4986551;28;19976;-63
2023/07/14 05:50:29;;;;;;;;;;;;;;;;;;4983758;28;19929;-64
2023/07/14 05:52:56;;;;;;;;;;;;;;;;;;4986037;28;19926;-65
2023/07/14 05:55:23;;;;;;;;;;;;;;;;;;4988520;28;19922;-64
2023/07/14 05:57:50;;;;;;;;;;;;;;;;;;4982358;28;19972;-65
2023/07/14 06:00:18;;;;;;;;;;;;;;;;;;4982603;28;19926;-65
2023/07/14 06:02:46;;;;;;;;;;;;;;;;;;4985968;28;19945;-66
2023/07/14 06:05:13;;;;;;;;;;;;;;;;;;4988086;28;19932;-65
2023/07/14 06:07:40;;;;;;;;;;;;;;;;;;4985578;28;20005;-65
2023/07/14 06:10:07;;;;;;;;;;;;;;;;;;4983581;28;19941;-66
2023/07/14 06:12:34;;;;;;;;;;;;;;;;;;4990786;28;19976;-66
2023/07/14 06:15:01;;;;;;;;;;;;;;;;;;4992850;28;19928;-66
2023/07/14 06:17:28;;;;;;;;;;;;;;;;;;4983552;28;20271;-65
2023/07/14 06:19:54;;;;;;;;;;;;;;;;;;4984577;28;19922;-67
2023/07/14 06:22:21;;;;;;;;;;;;;;;;;;4984252;28;19922;-67
2023/07/14 06:24:49;;;;;;;;;;;;;;;;;;4979076;28;20359;-68
2023/07/14 06:27:15;;;;;;;;;;;;;;;;;;4983543;28;19929;-66
2023/07/14 06:29:43;;;;;;;;;;;;;;;;;;4984218;28;19921;-67
2023/07/14 06:32:10;;;;;;;;;;;;;;;;;;4985948;28;19921;-67
2023/07/14 06:34:36;;;;;;;;;;;;;;;;;;4989290;28;20354;-67
2023/07/14 06:37:03;;;;;;;;;;;;;;;;;;4985824;28;19922;-67
2023/07/14 06:39:30;;;;;;;;;;;;;;;;;;4983354;28;19928;-67
2023/07/14 06:41:57;;;;;;;;;;;;;;;;;;4984140;28;19930;-67
2023/07/14 06:44:24;;;;;;;;;;;;;;;;;;4985031;28;19925;-66
2023/07/14 06:46:51;;;;;;;;;;;;;;;;;;4984680;28;19922;-66
2023/07/14 06:49:18;;;;;;;;;;;;;;;;;;4984172;28;20623;-65
2023/07/14 06:51:45;;;;;;;;;;;;;;;;;;4983433;28;20272;-66
2023/07/14 06:54:12;;;;;;;;;;;;;;;;;;4982724;28;19922;-64
2023/07/14 06:56:39;;;;;;;;;;;;;;;;;;4988633;28;19926;-66
2023/07/14 06:59:06;;;;;;;;;;;;;;;;;;4985002;28;19925;-67
2023/07/14 07:01:33;;;;;;;;;;;;;;;;;;4978206;28;19922;-68
2023/07/14 07:04:00;;;;;;;;;;;;;;;;;;4983756;28;19925;-65
2023/07/14 07:06:27;;;;;;;;;;;;;;;;;;4980154;28;19926;-65
2023/07/14 07:08:54;;;;;;;;;;;;;;;;;;4982950;28;19926;-66
2023/07/14 07:11:21;;;;;;;;;;;;;;;;;;4983465;28;20546;-64
2023/07/14 07:13:48;;;;;;;;;;;;;;;;;;4975752;28;19926;-66
2023/07/14 07:16:15;;;;;;;;;;;;;;;;;;4992107;28;19929;-64
2023/07/14 07:18:41;;;;;;;;;;;;;;;;;;4981154;28;19934;-63
2023/07/14 07:21:12;;;;;;;;;;;;;;;;;;4982684;28;20371;-65
2023/07/14 07:23:39;;;;;;;;;;;;;;;;;;4983758;28;19976;-66
2023/07/14 07:26:06;;;;;;;;;;;;;;;;;;4982961;28;20386;-64
2023/07/14 07:28:33;;;;;;;;;;;;;;;;;;4980943;28;19922;-66
2023/07/14 07:31:00;;;;;;;;;;;;;;;;;;4982483;28;20398;-65
2023/07/14 07:33:28;;;;;;;;;;;;;;;;;;4984806;28;19930;-67
2023/07/14 07:35:55;;;;;;;;;;;;;;;;;;4983482;28;20008;-65
2023/07/14 07:38:21;;;;;;;;;;;;;;;;;;4982370;28;20100;-65
2023/07/14 07:40:48;;;;;;;;;;;;;;;;;;4982471;28;19946;-65
2023/07/14 07:43:15;;;;;;;;;;;;;;;;;;4979614;28;20584;-64
2023/07/14 07:45:42;;;;;;;;;;;;;;;;;;4985550;28;19921;-66
2023/07/14 07:48:09;;;;;;;;;;;;;;;;;;4983125;28;19921;-64
2023/07/14 07:50:36;;;;;;;;;;;;;;;;;;4981395;28;19922;-65
2023/07/14 07:53:04;;;;;;;;;;;;;;;;;;4981045;28;19922;-65
2023/07/14 07:55:31;;;;;;;;;;;;;;;;;;4988411;28;19922;-65
2023/07/14 07:57:57;;;;;;;;;;;;;;;;;;4985950;28;19930;-64
2023/07/14 08:00:25;;;;;;;;;;;;;;;;;;4980081;28;19929;-66
2023/07/14 08:02:51;;;;;;;;;;;;;;;;;;4982675;28;20292;-64
2023/07/14 08:05:18;;;;;;;;;;;;;;;;;;4983228;28;19926;-66
2023/07/14 08:07:45;;;;;;;;;;;;;;;;;;4980914;28;19922;-66
2023/07/14 08:10:12;;;;;;;;;;;;;;;;;;4981708;28;19981;-65
2023/07/14 08:12:39;;;;;;;;;;;;;;;;;;4983179;28;19922;-66
2023/07/14 08:15:07;;;;;;;;;;;;;;;;;;4986138;28;19926;-65
2023/07/14 08:17:34;;;;;;;;;;;;;;;;;;4986613;28;19922;-66
2023/07/14 08:20:01;;;;;;;;;;;;;;;;;;4980883;28;19930;-67
2023/07/14 08:22:28;;;;;;;;;;;;;;;;;;4981261;28;19929;-67
2023/07/14 08:24:55;;;;;;;;;;;;;;;;;;4982878;28;20353;-66
2023/07/14 08:27:22;;;;;;;;;;;;;;;;;;4985624;28;19925;-67
2023/07/14 08:29:49;;;;;;;;;;;;;;;;;;4979526;28;19922;-65
2023/07/14 08:32:16;;;;;;;;;;;;;;;;;;4985524;28;20466;-69
2023/07/14 08:34:43;;;;;;;;;;;;;;;;;;4982747;28;20012;-66
2023/07/14 08:37:10;;;;;;;;;;;;;;;;;;4980014;28;19926;-69
2023/07/14 08:39:37;;;;;;;;;;;;;;;;;;4983903;28;20446;-69
2023/07/14 08:42:04;;;;;;;;;;;;;;;;;;4982379;28;19922;-65
2023/07/14 08:44:31;;;;;;;;;;;;;;;;;;4979532;28;19993;-66
2023/07/14 08:46:58;;;;;;;;;;;;;;;;;;4982500;28;19925;-66
2023/07/14 08:49:25;;;;;;;;;;;;;;;;;;4979938;28;20564;-65
2023/07/14 08:51:52;;;;;;;;;;;;;;;;;;4980295;28;19922;-66
2023/07/14 08:54:19;;;;;;;;;;;;;;;;;;4981958;28;19922;-65
2023/07/14 08:56:46;;;;;;;;;;;;;;;;;;4981621;28;19925;-66
2023/07/14 08:59:13;;;;;;;;;;;;;;;;;;4982169;28;20358;-66
2023/07/14 09:01:40;;;;;;;;;;;;;;;;;;4988045;28;19922;-68
2023/07/14 09:04:07;;;;;;;;;;;;;;;;;;4986010;28;19929;-67
2023/07/14 09:06:34;;;;;;;;;;;;;;;;;;4984398;28;19921;-67
2023/07/14 09:09:01;;;;;;;;;;;;;;;;;;4985524;28;19922;-67
2023/07/14 09:11:28;;;;;;;;;;;;;;;;;;4989703;28;19929;-67
2023/07/14 09:13:55;;;;;;;;;;;;;;;;;;4991309;28;20345;-67
2023/07/14 09:16:23;;;;;;;;;;;;;;;;;;4980398;28;19977;-66
2023/07/14 09:18:50;;;;;;;;;;;;;;;;;;4980903;28;20315;-72
2023/07/14 09:21:17;;;;;;;;;;;;;;;;;;4984810;28;19933;-70
2023/07/14 09:23:44;;;;;;;;;;;;;;;;;;4980145;28;20008;-64
2023/07/14 09:26:11;;;;;;;;;;;;;;;;;;4983497;28;20359;-64
2023/07/14 09:28:38;;;;;;;;;;;;;;;;;;4982840;28;19932;-65
2023/07/14 09:31:06;;;;;;;;;;;;;;;;;;4986162;28;19928;-69
2023/07/14 09:33:32;;;;;;;;;;;;;;;;;;4990332;28;19976;-67
2023/07/14 09:36:00;;;;;;;;;;;;;;;;;;4987256;28;19926;-66
2023/07/14 09:38:27;;;;;;;;;;;;;;;;;;4985494;28;19921;-66
2023/07/14 09:40:54;;;;;;;;;;;;;;;;;;4985925;28;19928;-67
2023/07/14 09:43:21;;;;;;;;;;;;;;;;;;4984002;28;20363;-67
2023/07/14 09:45:48;;;;;;;;;;;;;;;;;;4985730;28;19925;-67
2023/07/14 09:48:15;;;;;;;;;;;;;;;;;;4990691;28;20307;-67
2023/07/14 09:50:41;;;;;;;;;;;;;;;;;;4982550;28;19921;-67
2023/07/14 09:53:08;;;;;;;;;;;;;;;;;;4989598;28;19921;-72
2023/07/14 09:55:35;;;;;;;;;;;;;;;;;;4984916;28;19922;-68
2023/07/14 09:58:02;;;;;;;;;;;;;;;;;;4986214;28;19921;-68
2023/07/14 10:00:29;;;;;;;;;;;;;;;;;;4982639;28;19922;-68
2023/07/14 10:02:56;;;;;;;;;;;;;;;;;;4984358;28;19922;-66
2023/07/14 10:05:23;;;;;;;;;;;;;;;;;;4985227;28;19922;-66
2023/07/14 10:07:50;;;;;;;;;;;;;;;;;;4983102;28;19926;-66
2023/07/14 10:10:19;;;;;;;;;;;;;;;;;;4983259;28;19929;-66
2023/07/14 10:12:46;;;;;;;;;;;;;;;;;;4988445;28;19925;-66
2023/07/14 10:15:13;;;;;;;;;;;;;;;;;;4988392;28;19932;-68
2023/07/14 10:17:40;;;;;;;;;;;;;;;;;;4984686;28;19926;-68
2023/07/14 10:20:07;;;;;;;;;;;;;;;;;;4983965;28;19929;-67
2023/07/14 10:22:35;;;;;;;;;;;;;;;;;;4984647;28;19922;-66
2023/07/14 10:25:03;;;;;;;;;;;;;;;;;;4983840;28;19928;-68
2023/07/14 10:27:30;;;;;;;;;;;;;;;;;;4983164;28;19929;-70
2023/07/14 10:29:57;;;;;;;;;;;;;;;;;;4984986;28;19937;-72
2023/07/14 10:32:25;;;;;;;;;;;;;;;;;;4982293;28;19988;-68
2023/07/14 10:34:52;;;;;;;;;;;;;;;;;;4987406;28;20023;-67
2023/07/14 10:37:19;;;;;;;;;;;;;;;;;;4979220;28;20359;-67
2023/07/14 10:39:46;;;;;;;;;;;;;;;;;;4985187;28;19922;-69
2023/07/14 10:42:12;;;;;;;;;;;;;;;;;;4986018;28;19921;-65
2023/07/14 10:44:39;;;;;;;;;;;;;;;;;;4989491;28;19922;-65
2023/07/14 10:47:06;;;;;;;;;;;;;;;;;;4986037;28;20378;-65
2023/07/14 10:49:33;;;;;;;;;;;;;;;;;;4982437;28;19922;-65
2023/07/14 10:52:00;;;;;;;;;;;;;;;;;;4981992;28;19930;-63
2023/07/14 10:54:27;;;;;;;;;;;;;;;;;;4985511;28;19922;-65
2023/07/14 10:56:54;;;;;;;;;;;;;;;;;;4986179;28;20279;-64
2023/07/14 10:59:20;;;;;;;;;;;;;;;;;;4978387;28;19926;-65
2023/07/14 11:01:47;;;;;;;;;;;;;;;;;;4984334;28;19926;-66
2023/07/14 11:04:14;;;;;;;;;;;;;;;;;;4982117;28;19976;-65
2023/07/14 11:06:41;;;;;;;;;;;;;;;;;;4983730;28;19929;-65
2023/07/14 11:09:08;;;;;;;;;;;;;;;;;;4982375;28;19930;-65
2023/07/14 11:11:37;;;;;;;;;;;;;;;;;;4981789;28;20335;-65
2023/07/14 11:14:04;;;;;;;;;;;;;;;;;;4987463;28;19976;-66
2023/07/14 11:16:30;;;;;;;;;;;;;;;;;;4980996;28;20398;-65
2023/07/14 11:18:57;;;;;;;;;;;;;;;;;;4989119;28;19976;-64
2023/07/14 11:21:24;;;;;;;;;;;;;;;;;;4983065;28;19929;-65
2023/07/14 11:23:51;;;;;;;;;;;;;;;;;;4984257;28;19927;-64
2023/07/14 11:26:18;;;;;;;;;;;;;;;;;;4981961;28;20021;-64
2023/07/14 11:28:46;;;;;;;;;;;;;;;;;;4980896;28;20021;-64
2023/07/14 11:31:13;;;;;;;;;;;;;;;;;;4987380;28;19922;-65
2023/07/14 11:33:40;;;;;;;;;;;;;;;;;;4983762;28;19929;-66
2023/07/14 11:36:07;;;;;;;;;;;;;;;;;;4985651;28;19929;-66
2023/07/14 11:38:33;;;;;;;;;;;;;;;;;;4985258;28;20256;-67
2023/07/14 11:41:00;;;;;;;;;;;;;;;;;;4979992;28;19922;-68
2023/07/14 11:43:28;;;;;;;;;;;;;;;;;;4988173;28;19976;-66
2023/07/14 11:45:54;;;;;;;;;;;;;;;;;;4984983;28;19929;-69
2023/07/14 11:48:21;;;;;;;;;;;;;;;;;;4983737;28;20622;-67
2023/07/14 11:50:48;;;;;;;;;;;;;;;;;;4988759;28;20393;-65
2023/07/14 11:53:15;;;;;;;;;;;;;;;;;;4986185;28;19988;-66
2023/07/14 11:55:42;;;;;;;;;;;;;;;;;;4984724;28;19921;-65
2023/07/14 11:58:09;;;;;;;;;;;;;;;;;;4981287;28;19988;-67
2023/07/14 12:00:36;;;;;;;;;;;;;;;;;;4980144;28;20390;-70
2023/07/14 12:03:03;;;;;;;;;;;;;;;;;;4982003;28;19948;-66
2023/07/14 12:05:30;;;;;;;;;;;;;;;;;;4981458;28;19922;-66
2023/07/14 12:07:58;;;;;;;;;;;;;;;;;;4983777;28;19922;-66
2023/07/14 12:10:24;;;;;;;;;;;;;;;;;;4989456;28;19922;-67
2023/07/14 12:12:51;;;;;;;;;;;;;;;;;;4986264;28;19922;-67
2023/07/14 12:15:18;;;;;;;;;;;;;;;;;;4982163;28;20113;-67
2023/07/14 12:17:44;;;;;;;;;;;;;;;;;;4984262;28;19930;-67
2023/07/14 12:20:11;;;;;;;;;;;;;;;;;;4981580;28;19960;-66
2023/07/14 12:22:38;;;;;;;;;;;;;;;;;;4978667;28;19922;-65
2023/07/14 12:25:05;;;;;;;;;;;;;;;;;;4980183;28;20283;-65
2023/07/14 12:27:32;;;;;;;;;;;;;;;;;;4981574;28;19922;-65
2023/07/14 12:29:59;;;;;;;;;;;;;;;;;;4980979;28;19934;-66
2023/07/14 12:32:25;;;;;;;;;;;;;;;;;;4982656;28;19976;-67
2023/07/14 12:34:52;;;;;;;;;;;;;;;;;;4982463;28;20375;-67
2023/07/14 12:37:20;;;;;;;;;;;;;;;;;;4988113;28;20346;-66
2023/07/14 12:39:47;;;;;;;;;;;;;;;;;;4981347;28;20381;-66
2023/07/14 12:42:14;;;;;;;;;;;;;;;;;;4982880;28;19922;-66
2023/07/14 12:44:40;;;;;;;;;;;;;;;;;;4981703;28;20025;-66
2023/07/14 12:47:07;;;;;;;;;;;;;;;;;;4985754;28;20020;-67
2023/07/14 12:49:36;;;;;;;;;;;;;;;;;;4984591;28;19966;-68
2023/07/14 12:52:03;;;;;;;;;;;;;;;;;;4985493;28;19922;-67
2023/07/14 12:54:30;;;;;;;;;;;;;;;;;;4985483;28;19980;-66
2023/07/14 12:56:57;;;;;;;;;;;;;;;;;;4989027;28;19980;-65
2023/07/14 12:59:23;;;;;;;;;;;;;;;;;;4991564;28;19972;-66
2023/07/14 13:01:50;;;;;;;;;;;;;;;;;;4990529;28;19977;-66
2023/07/14 13:04:17;;;;;;;;;;;;;;;;;;4989015;28;19921;-65
2023/07/14 13:06:44;;;;;;;;;;;;;;;;;;4988566;28;19926;-65
2023/07/14 13:09:11;;;;;;;;;;;;;;;;;;4984628;28;19944;-65
2023/07/14 13:11:38;;;;;;;;;;;;;;;;;;4986255;28;19925;-65
2023/07/14 13:14:05;;;;;;;;;;;;;;;;;;4991034;28;19926;-66
2023/07/14 13:16:33;;;;;;;;;;;;;;;;;;4987393;28;19929;-65
2023/07/14 13:18:59;;;;;;;;;;;;;;;;;;4982599;28;19930;-66
2023/07/14 13:21:26;;;;;;;;;;;;;;;;;;4983380;28;19921;-66
2023/07/14 13:23:53;;;;;;;;;;;;;;;;;;4983798;28;19926;-66
2023/07/14 13:26:20;;;;;;;;;;;;;;;;;;4985730;28;19930;-67
2023/07/14 13:28:47;;;;;;;;;;;;;;;;;;4985716;28;20353;-65
2023/07/14 13:31:14;;;;;;;;;;;;;;;;;;4983202;28;19922;-65
2023/07/14 13:33:41;;;;;;;;;;;;;;;;;;4985001;28;20314;-65
2023/07/14 13:36:08;;;;;;;;;;;;;;;;;;4986570;28;19977;-66
2023/07/14 13:38:35;;;;;;;;;;;;;;;;;;4984995;28;19976;-64
2023/07/14 13:41:02;;;;;;;;;;;;;;;;;;4985715;28;19921;-68
2023/07/14 13:43:29;;;;;;;;;;;;;;;;;;4985547;28;19922;-63
2023/07/14 13:45:56;;;;;;;;;;;;;;;;;;4988103;28;19925;-65
2023/07/14 13:48:23;;;;;;;;;;;;;;;;;;4984305;28;19945;-64
2023/07/14 13:50:50;;;;;;;;;;;;;;;;;;4986831;28;19986;-64
2023/07/14 13:53:17;;;;;;;;;;;;;;;;;;4987111;28;19976;-65
2023/07/14 13:55:44;;;;;;;;;;;;;;;;;;4975404;28;19922;-69
2023/07/14 13:58:11;;;;;;;;;;;;;;;;;;4974746;28;19941;-67
2023/07/14 14:00:37;;;;;;;;;;;;;;;;;;4974033;28;19949;-64
2023/07/14 14:03:04;;;;;;;;;;;;;;;;;;4974639;28;19926;-63
2023/07/14 14:05:33;;;;;;;;;;;;;;;;;;4978095;28;20004;-65
2023/07/14 14:08:00;;;;;;;;;;;;;;;;;;4982730;28;19981;-65
2023/07/14 14:10:27;;;;;;;;;;;;;;;;;;4988676;28;19922;-65
2023/07/14 14:12:54;;;;;;;;;;;;;;;;;;4985889;28;19926;-63
2023/07/14 14:15:22;;;;;;;;;;;;;;;;;;4983617;28;19925;-65
2023/07/14 14:17:50;;;;;;;;;;;;;;;;;;4985853;28;20354;-64
2023/07/14 14:20:17;;;;;;;;;;;;;;;;;;4983773;28;19929;-64
2023/07/14 14:22:45;;;;;;;;;;;;;;;;;;4985388;28;19961;-67
2023/07/14 14:25:12;;;;;;;;;;;;;;;;;;4986129;28;20008;-65
2023/07/14 14:27:40;;;;;;;;;;;;;;;;;;4984281;28;19921;-66
2023/07/14 14:30:06;;;;;;;;;;;;;;;;;;4981927;28;19929;-67
2023/07/14 14:32:33;;;;;;;;;;;;;;;;;;4986553;28;19921;-64
2023/07/14 14:35:00;;;;;;;;;;;;;;;;;;4981509;28;20283;-64
2023/07/14 14:37:27;;;;;;;;;;;;;;;;;;4984746;28;19983;-66
2023/07/14 14:39:54;;;;;;;;;;;;;;;;;;4983572;28;20325;-63
2023/07/14 14:42:21;;;;;;;;;;;;;;;;;;4982826;28;19992;-63
2023/07/14 14:44:48;;;;;;;;;;;;;;;;;;4983493;28;20363;-63
2023/07/14 14:47:15;;;;;;;;;;;;;;;;;;4988634;28;19925;-64
2023/07/14 14:49:42;;;;;;;;;;;;;;;;;;4981627;28;19995;-64
2023/07/14 14:52:09;;;;;;;;;;;;;;;;;;4986995;28;19929;-63
2023/07/14 14:54:36;;;;;;;;;;;;;;;;;;4982666;28;20298;-69
2023/07/14 14:57:03;;;;;;;;;;;;;;;;;;4984733;28;19929;-67
2023/07/14 14:59:31;;;;;;;;;;;;;;;;;;4981717;28;19922;-64
2023/07/14 15:01:58;;;;;;;;;;;;;;;;;;4983855;28;19926;-63
2023/07/14 15:04:27;;;;;;;;;;;;;;;;;;4984267;28;20323;-65
2023/07/14 15:06:54;;;;;;;;;;;;;;;;;;4982225;28;20307;-64
2023/07/14 15:09:21;;;;;;;;;;;;;;;;;;4982794;28;19926;-64
2023/07/14 15:11:48;;;;;;;;;;;;;;;;;;4984590;28;19921;-63
2023/07/14 15:14:15;;;;;;;;;;;;;;;;;;4986801;28;19934;-65
2023/07/14 15:16:43;;;;;;;;;;;;;;;;;;4984810;28;19925;-66
2023/07/14 15:19:10;;;;;;;;;;;;;;;;;;4987172;28;19922;-65
2023/07/14 15:21:36;;;;;;;;;;;;;;;;;;4987293;28;19934;-65
2023/07/14 15:24:04;;;;;;;;;;;;;;;;;;4984913;28;19921;-64
2023/07/14 15:26:31;;;;;;;;;;;;;;;;;;4982818;28;19960;-65
2023/07/14 15:28:57;;;;;;;;;;;;;;;;;;4980842;28;19926;-65
2023/07/14 15:31:24;;;;;;;;;;;;;;;;;;4984722;28;19922;-65
2023/07/14 15:33:51;;;;;;;;;;;;;;;;;;4982211;28;20295;-66
2023/07/14 15:36:18;;;;;;;;;;;;;;;;;;4984972;28;19928;-66
2023/07/14 15:38:45;;;;;;;;;;;;;;;;;;4983158;28;19977;-65
2023/07/14 15:41:12;;;;;;;;;;;;;;;;;;4981619;28;19921;-65
2023/07/14 15:43:39;;;;;;;;;;;;;;;;;;4983702;28;20045;-63
2023/07/14 15:46:05;;;;;;;;;;;;;;;;;;4987221;28;20334;-65
2023/07/14 15:48:32;;;;;;;;;;;;;;;;;;4981380;28;19976;-64
2023/07/14 15:51:00;;;;;;;;;;;;;;;;;;4981797;28;19922;-64
2023/07/14 15:53:27;;;;;;;;;;;;;;;;;;4983884;28;19968;-67
2023/07/14 15:55:54;;;;;;;;;;;;;;;;;;4979694;28;19928;-66
2023/07/14 15:58:23;;;;;;;;;;;;;;;;;;4983622;28;19953;-67
2023/07/14 16:00:50;;;;;;;;;;;;;;;;;;4983223;28;19927;-65
2023/07/14 16:03:17;;;;;;;;;;;;;;;;;;4980878;28;20327;-65
2023/07/14 16:05:44;;;;;;;;;;;;;;;;;;4985340;28;20013;-64
2023/07/14 16:08:11;;;;;;;;;;;;;;;;;;4986856;28;19988;-64
2023/07/14 16:10:38;;;;;;;;;;;;;;;;;;4982474;28;19930;-63
2023/07/14 16:13:05;;;;;;;;;;;;;;;;;;4987988;28;20322;-64
2023/07/14 16:15:32;;;;;;;;;;;;;;;;;;4983496;28;19922;-64
2023/07/14 16:17:59;;;;;;;;;;;;;;;;;;4983478;28;20036;-65
2023/07/14 16:20:26;;;;;;;;;;;;;;;;;;4981534;28;20319;-62
2023/07/14 16:22:56;;;;;;;;;;;;;;;;;;4980103;28;19984;-63
2023/07/14 16:25:23;;;;;;;;;;;;;;;;;;4981875;28;19925;-63
2023/07/14 16:27:50;;;;;;;;;;;;;;;;;;4983021;28;19925;-63
2023/07/14 16:30:17;;;;;;;;;;;;;;;;;;4980407;28;19934;-62
2023/07/14 16:32:44;;;;;;;;;;;;;;;;;;4981685;28;20367;-63
2023/07/14 16:35:13;;;;;;;;;;;;;;;;;;4983691;28;19922;-63
2023/07/14 16:37:40;;;;;;;;;;;;;;;;;;4984014;28;19922;-63
2023/07/14 16:40:07;;;;;;;;;;;;;;;;;;4986573;28;20382;-63
2023/07/14 16:42:34;;;;;;;;;;;;;;;;;;4988923;28;19965;-63